Time;durP1;ratioP1;P1;durP2;ratioP2;P2;SDS_P1;SDS_P2;PMS_P1;PMS_P2;Temp;Humidity;BMP_temperature;BMP_pressure;BME280_temperature;BME280_humidity;BME280_pressure;Samples;Min_cycle;Max_cycle;Signal;HPM_P1;HPM_P2
2021/12/06 00:01:50;;;;;;;124.05;58.70;;;;;;;;;;4997502;28;20122;-80
2021/12/06 00:04:18;;;;;;;128.75;61.53;;;;;;;;;;4998359;28;20057;-80
2021/12/06 00:06:46;;;;;;;125.00;61.22;;;;;;;;;;4997616;28;20018;-80
2021/12/06 00:09:14;;;;;;;113.85;54.30;;;;;;;;;;4999537;28;20019;-81
2021/12/06 00:11:40;;;;;;;102.82;52.60;;;;;;;;;;4997774;28;20033;-80
2021/12/06 00:14:06;;;;;;;108.40;46.47;;;;;;;;;;4996949;28;20138;-80
2021/12/06 00:16:32;;;;;;;102.03;48.40;;;;;;;;;;5003604;23;20042;-80
2021/12/06 00:18:58;;;;;;;102.03;49.53;;;;;;;;;;5035374;23;20136;-80
2021/12/06 00:21:25;;;;;;;76.43;40.03;;;;;;;;;;4998844;28;20492;-80
2021/12/06 00:23:51;;;;;;;73.07;32.63;;;;;;;;;;4997075;28;20022;-80
2021/12/06 00:26:17;;;;;;;84.95;39.50;;;;;;;;;;5096074;23;20039;-80
2021/12/06 00:28:45;;;;;;;84.85;40.22;;;;;;;;;;4996887;28;20037;-80
2021/12/06 00:31:12;;;;;;;74.32;40.35;;;;;;;;;;4996751;28;20157;-80
2021/12/06 00:33:38;;;;;;;82.75;38.17;;;;;;;;;;5000025;28;20018;-80
2021/12/06 00:36:07;;;;;;;78.75;34.70;;;;;;;;;;5002944;28;20046;-80
2021/12/06 00:38:35;;;;;;;69.93;35.63;;;;;;;;;;5001372;28;20018;-80
2021/12/06 00:41:01;;;;;;;69.63;36.70;;;;;;;;;;5001200;28;20037;-80
2021/12/06 00:43:27;;;;;;;69.82;34.30;;;;;;;;;;5003080;28;20050;-80
2021/12/06 00:45:53;;;;;;;69.97;32.78;;;;;;;;;;5002634;28;20022;-81
2021/12/06 00:48:19;;;;;;;76.40;36.00;;;;;;;;;;5002237;28;20077;-80
2021/12/06 00:50:45;;;;;;;77.03;33.88;;;;;;;;;;5002585;28;20022;-80
2021/12/06 00:53:12;;;;;;;67.10;34.22;;;;;;;;;;5000455;28;20029;-80
2021/12/06 00:55:38;;;;;;;83.57;34.55;;;;;;;;;;5001634;28;20026;-80
2021/12/06 00:58:04;;;;;;;71.82;37.63;;;;;;;;;;5003112;28;20057;-80
2021/12/06 01:00:36;;;;;;;80.20;34.80;;;;;;;;;;5000632;28;20459;-80
2021/12/06 01:03:03;;;;;;;63.40;31.25;;;;;;;;;;5000854;28;20356;-80
2021/12/06 01:05:29;;;;;;;65.53;31.60;;;;;;;;;;5002830;28;20044;-80
2021/12/06 01:07:55;;;;;;;65.70;34.60;;;;;;;;;;5000061;28;20124;-80
2021/12/06 01:10:23;;;;;;;105.15;46.95;;;;;;;;;;5003941;28;20018;-80
2021/12/06 01:12:49;;;;;;;98.22;46.75;;;;;;;;;;5005985;28;20026;-80
2021/12/06 01:15:15;;;;;;;93.18;44.72;;;;;;;;;;5008891;28;20110;-80
2021/12/06 01:17:41;;;;;;;93.85;47.15;;;;;;;;;;5471060;23;20054;-80
2021/12/06 01:20:10;;;;;;;114.20;50.13;;;;;;;;;;5005287;28;20092;-81
2021/12/06 01:22:47;;;;;;;104.88;49.33;;;;;;;;;;5004426;28;20129;-81
2021/12/06 01:25:47;;;;;;;98.97;46.65;;;;;;;;;;5007096;28;20018;-81
2021/12/06 01:41:16;;;;;;;79.40;38.92;;;;;;;;;;5004790;28;20033;-82
2021/12/06 01:44:02;;;;;;;83.32;38.60;;;;;;;;;;5006187;28;20022;-82
2021/12/06 01:46:28;;;;;;;73.35;35.67;;;;;;;;;;5007874;28;20014;-82
2021/12/06 01:48:54;;;;;;;63.28;35.45;;;;;;;;;;5010837;28;20020;-81
2021/12/06 01:51:20;;;;;;;76.22;36.10;;;;;;;;;;5236223;23;20148;-82
2021/12/06 01:53:46;;;;;;;77.82;36.08;;;;;;;;;;5007329;28;20101;-82
2021/12/06 01:56:12;;;;;;;83.57;38.05;;;;;;;;;;5007275;28;20038;-81
2021/12/06 01:58:38;;;;;;;56.05;35.25;;;;;;;;;;5006531;28;20018;-81
2021/12/06 02:01:04;;;;;;;65.15;31.02;;;;;;;;;;5011278;28;20034;-82
2021/12/06 02:03:30;;;;;;;78.55;34.78;;;;;;;;;;4988036;28;20022;-81
2021/12/06 02:05:56;;;;;;;76.38;34.15;;;;;;;;;;4994431;28;20027;-82
2021/12/06 02:08:24;;;;;;;97.95;42.10;;;;;;;;;;5116091;23;20144;-81
2021/12/06 02:10:53;;;;;;;105.97;50.00;;;;;;;;;;5016514;28;20027;-80
2021/12/06 02:13:22;;;;;;;102.82;47.67;;;;;;;;;;5017647;28;20022;-81
2021/12/06 02:15:52;;;;;;;109.80;49.13;;;;;;;;;;5005033;28;20472;-82
2021/12/06 02:21:27;;;;;;;132.60;63.03;;;;;;;;;;5078038;23;20747;-82
2021/12/06 02:23:57;;;;;;;131.80;63.55;;;;;;;;;;4962669;28;20043;-82
2021/12/06 02:26:25;;;;;;;100.75;46.78;;;;;;;;;;4967917;28;20037;-80
2021/12/06 02:28:52;;;;;;;123.75;54.35;;;;;;;;;;4948808;29;20015;-82
2021/12/06 02:31:19;;;;;;;118.43;53.63;;;;;;;;;;5368510;23;20057;-81
2021/12/06 02:33:48;;;;;;;129.27;66.57;;;;;;;;;;5003161;28;20471;-81
2021/12/06 02:36:14;;;;;;;144.73;65.75;;;;;;;;;;5017354;23;20053;-81
2021/12/06 02:38:40;;;;;;;166.07;78.82;;;;;;;;;;5007830;28;20042;-81
2021/12/06 02:41:11;;;;;;;135.10;62.17;;;;;;;;;;5007401;28;20038;-82
2021/12/06 02:43:41;;;;;;;121.97;60.08;;;;;;;;;;5003149;28;20034;-82
2021/12/06 02:46:08;;;;;;;128.60;61.53;;;;;;;;;;4987827;28;20015;-81
2021/12/06 02:48:35;;;;;;;120.88;61.17;;;;;;;;;;5012174;28;20053;-82
2021/12/06 02:51:02;;;;;;;95.28;46.20;;;;;;;;;;5006022;28;20038;-82
2021/12/06 02:56:16;;;;;;;96.43;46.42;;;;;;;;;;4810992;23;20085;-81
2021/12/06 03:01:08;;;;;;;103.60;49.63;;;;;;;;;;5000681;28;20089;-82
2021/12/06 03:03:40;;;;;;;95.00;51.60;;;;;;;;;;4999288;28;20418;-82
2021/12/06 03:06:07;;;;;;;101.57;45.15;;;;;;;;;;4996062;28;20128;-81
2021/12/06 03:08:46;;;;;;;100.40;46.30;;;;;;;;;;4982857;23;20437;-82
2021/12/06 03:11:32;;;;;;;90.20;48.33;;;;;;;;;;5001018;28;20046;-81
2021/12/06 03:13:58;;;;;;;90.80;50.75;;;;;;;;;;4997388;28;20022;-81
2021/12/06 03:18:53;;;;;;;99.93;48.60;;;;;;;;;;5002513;23;20441;-82
2021/12/06 03:21:21;;;;;;;101.65;52.83;;;;;;;;;;5002597;28;20030;-83
2021/12/06 03:23:48;;;;;;;92.22;43.53;;;;;;;;;;5004191;28;20385;-82
2021/12/06 03:26:14;;;;;;;80.22;39.83;;;;;;;;;;5000764;28;20018;-82
2021/12/06 03:28:42;;;;;;;84.63;36.92;;;;;;;;;;4985139;28;20026;-82
2021/12/06 03:31:09;;;;;;;77.25;33.20;;;;;;;;;;5008959;28;20097;-83
2021/12/06 03:33:36;;;;;;;75.00;34.15;;;;;;;;;;5007861;28;20029;-82
2021/12/06 03:36:05;;;;;;;81.18;36.25;;;;;;;;;;5102749;23;20046;-82
2021/12/06 03:38:32;;;;;;;86.18;38.33;;;;;;;;;;5138096;23;20058;-83
2021/12/06 03:40:59;;;;;;;95.80;40.50;;;;;;;;;;4988698;23;20433;-82
2021/12/06 03:43:25;;;;;;;111.25;43.47;;;;;;;;;;5001975;28;20374;-82
2021/12/06 03:45:52;;;;;;;120.72;53.08;;;;;;;;;;5008860;23;20061;-82
2021/12/06 03:48:19;;;;;;;134.38;64.05;;;;;;;;;;5002244;28;20029;-81
2021/12/06 03:50:47;;;;;;;162.18;70.53;;;;;;;;;;4987802;28;20026;-82
2021/12/06 03:53:14;;;;;;;173.32;78.03;;;;;;;;;;5000529;28;20018;-81
2021/12/06 03:55:40;;;;;;;164.68;78.25;;;;;;;;;;4996689;23;20038;-81
2021/12/06 04:00:42;;;;;;;185.57;84.03;;;;;;;;;;5026394;23;20361;-81
2021/12/06 04:03:12;;;;;;;175.35;88.32;;;;;;;;;;5003564;23;20129;-83
2021/12/06 04:05:41;;;;;;;204.02;96.22;;;;;;;;;;5023533;23;20054;-81
2021/12/06 04:08:13;;;;;;;216.15;108.18;;;;;;;;;;4984319;28;20026;-82
2021/12/06 04:10:45;;;;;;;204.07;101.20;;;;;;;;;;4998318;23;20042;-80
2021/12/06 04:13:14;;;;;;;213.13;107.60;;;;;;;;;;5139095;23;20248;-82
2021/12/06 04:15:44;;;;;;;226.05;113.63;;;;;;;;;;5085127;23;20105;-82
2021/12/06 04:18:13;;;;;;;227.30;116.78;;;;;;;;;;5015470;23;20114;-82
2021/12/06 04:20:41;;;;;;;243.93;125.43;;;;;;;;;;5009442;23;20393;-82
2021/12/06 04:23:09;;;;;;;257.60;132.70;;;;;;;;;;5003683;28;20049;-80
2021/12/06 04:28:23;;;;;;;204.85;108.78;;;;;;;;;;5012290;23;20055;-81
2021/12/06 04:36:28;;;;;;;159.00;69.35;;;;;;;;;;5027693;23;20050;-83
2021/12/06 04:43:58;;;;;;;156.45;68.93;;;;;;;;;;5091229;23;20069;-81
2021/12/06 04:46:25;;;;;;;140.52;66.35;;;;;;;;;;5171493;23;20500;-81
2021/12/06 04:48:51;;;;;;;139.45;69.18;;;;;;;;;;5069782;23;20144;-82
2021/12/06 04:53:53;;;;;;;142.05;62.72;;;;;;;;;;4834382;23;20361;-82
2021/12/06 04:56:36;;;;;;;137.82;61.10;;;;;;;;;;5001534;28;20019;-83
2021/12/06 04:59:11;;;;;;;121.75;59.28;;;;;;;;;;5023830;23;20047;-81
2021/12/06 05:01:37;;;;;;;124.15;65.47;;;;;;;;;;4963470;28;20051;-82
2021/12/06 05:04:10;;;;;;;139.48;66.53;;;;;;;;;;4963463;28;20026;-83
2021/12/06 05:09:14;;;;;;;139.00;65.68;;;;;;;;;;5077247;23;20062;-82
2021/12/06 05:11:40;;;;;;;130.82;66.10;;;;;;;;;;4999955;28;20019;-83
2021/12/06 05:14:12;;;;;;;130.02;66.30;;;;;;;;;;4998452;28;20057;-82
2021/12/06 05:16:38;;;;;;;133.05;67.50;;;;;;;;;;5046028;23;20082;-81
2021/12/06 05:19:10;;;;;;;139.32;62.50;;;;;;;;;;5004129;28;19998;-82
2021/12/06 05:24:16;;;;;;;131.13;65.25;;;;;;;;;;5016722;23;20053;-82
2021/12/06 05:26:43;;;;;;;133.48;64.22;;;;;;;;;;5059574;23;20062;-82
2021/12/06 05:29:10;;;;;;;121.57;60.60;;;;;;;;;;5053851;23;20038;-82
2021/12/06 05:31:40;;;;;;;123.47;63.28;;;;;;;;;;5060624;23;20050;-82
2021/12/06 05:34:12;;;;;;;144.48;73.18;;;;;;;;;;5009162;23;20022;-81
2021/12/06 05:36:40;;;;;;;134.88;68.65;;;;;;;;;;4990486;28;20030;-80
2021/12/06 05:39:08;;;;;;;132.98;65.32;;;;;;;;;;5002635;28;20025;-83
2021/12/06 05:41:37;;;;;;;143.05;74.07;;;;;;;;;;5003525;28;20034;-80
2021/12/06 05:44:04;;;;;;;144.98;80.85;;;;;;;;;;5002534;28;20396;-81
2021/12/06 05:46:32;;;;;;;150.80;67.72;;;;;;;;;;5006795;28;20306;-82
2021/12/06 05:48:58;;;;;;;150.40;73.40;;;;;;;;;;5049177;23;20100;-82
2021/12/06 05:51:25;;;;;;;141.82;74.90;;;;;;;;;;5006022;28;20097;-81
2021/12/06 05:53:54;;;;;;;139.27;71.50;;;;;;;;;;5157362;23;20413;-81
2021/12/06 05:56:25;;;;;;;153.35;76.07;;;;;;;;;;5112592;23;20046;-82
2021/12/06 05:58:54;;;;;;;157.93;77.07;;;;;;;;;;5014081;23;20125;-81
2021/12/06 06:01:29;;;;;;;148.68;70.50;;;;;;;;;;5016595;23;20112;-82
2021/12/06 06:04:01;;;;;;;150.23;69.00;;;;;;;;;;5000784;28;20085;-81
2021/12/06 06:06:31;;;;;;;139.57;69.75;;;;;;;;;;4986799;28;20022;-82
2021/12/06 06:09:01;;;;;;;140.80;69.38;;;;;;;;;;4986143;28;20433;-81
2021/12/06 06:11:30;;;;;;;147.50;69.22;;;;;;;;;;5001006;28;20417;-81
2021/12/06 06:13:59;;;;;;;;;;;;;;;;;;5165768;23;20101;-77
2021/12/06 06:24:16;;;;;;;137.25;71.95;;;;;;;;;;4911575;23;20078;-82
2021/12/06 06:26:46;;;;;;;151.30;68.57;;;;;;;;;;5104955;23;20046;-82
2021/12/06 06:29:15;;;;;;;150.63;70.85;;;;;;;;;;4989791;23;20058;-82
2021/12/06 06:36:52;;;;;;;145.07;72.07;;;;;;;;;;5085927;23;20688;-82
2021/12/06 06:39:22;;;;;;;145.25;72.55;;;;;;;;;;5077320;23;20042;-82
2021/12/06 06:41:50;;;;;;;142.73;72.35;;;;;;;;;;5003605;28;20040;-82
2021/12/06 06:44:17;;;;;;;155.43;68.70;;;;;;;;;;5010567;23;20475;-83
2021/12/06 06:46:45;;;;;;;131.23;66.30;;;;;;;;;;5065600;23;20030;-81
2021/12/06 06:59:40;;;;;;;113.22;60.00;;;;;;;;;;5108962;23;20137;-82
2021/12/06 07:02:12;;;;;;;131.20;57.33;;;;;;;;;;5000918;28;20066;-81
2021/12/06 07:04:42;;;;;;;131.93;58.00;;;;;;;;;;4988058;28;20030;-83
2021/12/06 07:07:11;;;;;;;118.68;55.65;;;;;;;;;;5082753;23;20042;-83
2021/12/06 07:09:42;;;;;;;125.30;54.67;;;;;;;;;;5379375;23;20017;-81
2021/12/06 07:14:47;;;;;;;123.30;56.75;;;;;;;;;;5100067;23;20353;-82
2021/12/06 07:17:16;;;;;;;115.13;53.08;;;;;;;;;;5350842;23;20081;-82
2021/12/06 07:19:43;;;;;;;111.32;49.20;;;;;;;;;;5006953;23;20029;-82
2021/12/06 07:22:11;;;;;;;114.40;52.25;;;;;;;;;;5022483;23;20034;-82
2021/12/06 07:24:39;;;;;;;116.22;54.47;;;;;;;;;;4984332;28;20018;-82
2021/12/06 07:27:06;;;;;;;110.15;52.75;;;;;;;;;;5030672;23;20061;-80
2021/12/06 07:29:33;;;;;;;105.65;48.67;;;;;;;;;;5002063;28;20030;-81
2021/12/06 07:32:01;;;;;;;119.53;50.38;;;;;;;;;;4994485;23;20130;-82
2021/12/06 07:34:27;;;;;;;99.47;49.47;;;;;;;;;;4996776;28;20548;-82
2021/12/06 07:36:56;;;;;;;98.40;49.10;;;;;;;;;;4980783;28;20019;-81
2021/12/06 07:39:22;;;;;;;100.63;48.25;;;;;;;;;;4996975;28;20038;-82
2021/12/06 07:41:49;;;;;;;98.28;45.22;;;;;;;;;;4999334;28;20030;-82
2021/12/06 07:51:52;;;;;;;110.78;45.13;;;;;;;;;;5016099;23;20050;-81
2021/12/06 07:54:24;;;;;;;97.97;44.33;;;;;;;;;;4981527;28;20026;-82
2021/12/06 07:56:51;;;;;;;96.93;47.20;;;;;;;;;;4996993;28;20018;-82
2021/12/06 07:59:18;;;;;;;91.28;40.42;;;;;;;;;;5022774;23;20050;-83
2021/12/06 08:01:44;;;;;;;93.43;43.00;;;;;;;;;;5004020;23;20445;-82
2021/12/06 08:04:10;;;;;;;107.40;43.30;;;;;;;;;;5013465;23;20461;-82
2021/12/06 08:06:39;;;;;;;121.50;47.70;;;;;;;;;;4997969;28;20037;-82
2021/12/06 08:09:08;;;;;;;101.57;43.15;;;;;;;;;;4998782;28;20018;-81
2021/12/06 08:11:37;;;;;;;100.38;41.65;;;;;;;;;;4988321;23;20052;-82
2021/12/06 08:14:06;;;;;;;;;;;;;;;;;;4989907;23;20058;-83
2021/12/06 08:16:38;;;;;;;100.22;40.95;;;;;;;;;;4998725;28;19944;-81
2021/12/06 08:19:05;;;;;;;93.38;41.35;;;;;;;;;;4997604;28;20027;-82
2021/12/06 08:21:32;;;;;;;97.78;43.83;;;;;;;;;;5041536;23;20050;-81
2021/12/06 08:24:00;;;;;;;91.88;43.88;;;;;;;;;;5003168;23;20050;-81
2021/12/06 08:26:30;;;;;;;110.40;49.78;;;;;;;;;;4981988;28;20045;-82
2021/12/06 08:28:57;;;;;;;107.20;45.30;;;;;;;;;;5019339;23;20185;-81
2021/12/06 08:31:27;;;;;;;129.70;46.90;;;;;;;;;;5000070;28;20433;-81
2021/12/06 08:33:57;;;;;;;91.25;46.38;;;;;;;;;;4981503;28;20114;-82
2021/12/06 08:36:27;;;;;;;103.65;44.33;;;;;;;;;;4991968;23;20093;-82
2021/12/06 08:38:54;;;;;;;109.63;42.45;;;;;;;;;;4979599;28;20063;-83
2021/12/06 08:41:22;;;;;;;99.20;44.60;;;;;;;;;;5002768;23;20050;-82
2021/12/06 08:46:25;;;;;;;105.70;44.83;;;;;;;;;;5027080;23;20058;-83
2021/12/06 08:48:55;;;;;;;94.90;42.60;;;;;;;;;;4996703;28;20413;-82
2021/12/06 08:51:32;;;;;;;90.80;41.17;;;;;;;;;;4996952;28;20364;-82
2021/12/06 08:54:00;;;;;;;88.53;42.45;;;;;;;;;;4999693;28;20022;-82
2021/12/06 08:56:27;;;;;;;98.18;40.60;;;;;;;;;;5000928;28;20332;-82
2021/12/06 08:58:57;;;;;;;84.75;40.42;;;;;;;;;;4968234;28;20030;-82
2021/12/06 09:01:24;;;;;;;92.75;40.78;;;;;;;;;;5054267;23;20518;-82
2021/12/06 09:03:52;;;;;;;95.35;44.88;;;;;;;;;;4999436;28;20018;-82
2021/12/06 09:06:19;;;;;;;99.75;40.88;;;;;;;;;;4983750;28;20040;-84
2021/12/06 09:08:45;;;;;;;95.72;41.78;;;;;;;;;;4984743;28;20022;-82
2021/12/06 09:11:12;;;;;;;80.15;41.30;;;;;;;;;;5045712;23;20049;-82
2021/12/06 09:13:39;;;;;;;87.90;38.03;;;;;;;;;;5000347;28;20046;-83
2021/12/06 09:16:06;;;;;;;93.25;38.08;;;;;;;;;;5001035;28;20425;-82
2021/12/06 09:18:34;;;;;;;84.05;40.20;;;;;;;;;;5000918;28;20019;-83
2021/12/06 09:21:01;;;;;;;113.85;46.63;;;;;;;;;;5000013;28;20137;-82
2021/12/06 09:23:31;;;;;;;90.85;43.42;;;;;;;;;;5001989;28;20025;-83
2021/12/06 09:26:00;;;;;;;108.20;44.72;;;;;;;;;;4985630;28;20018;-82
2021/12/06 09:28:28;;;;;;;102.28;44.63;;;;;;;;;;5002256;28;20082;-83
2021/12/06 09:30:54;;;;;;;99.45;42.60;;;;;;;;;;5002204;28;20030;-84
2021/12/06 09:33:20;;;;;;;92.28;47.58;;;;;;;;;;4992183;23;20417;-82
2021/12/06 09:35:50;;;;;;;102.50;46.83;;;;;;;;;;5002756;28;20034;-82
2021/12/06 09:38:18;;;;;;;97.50;47.95;;;;;;;;;;5001389;28;20019;-82
2021/12/06 09:40:46;;;;;;;97.50;41.72;;;;;;;;;;4984973;28;20065;-83
2021/12/06 09:43:13;;;;;;;105.03;43.95;;;;;;;;;;4983715;28;20029;-82
2021/12/06 09:45:40;;;;;;;98.00;45.40;;;;;;;;;;5000714;28;20069;-83
2021/12/06 09:48:07;;;;;;;106.53;47.20;;;;;;;;;;5000365;28;20436;-83
2021/12/06 09:50:37;;;;;;;91.47;44.72;;;;;;;;;;4984128;28;20022;-82
2021/12/06 09:53:04;;;;;;;106.45;49.63;;;;;;;;;;5004115;23;20409;-82
2021/12/06 09:55:32;;;;;;;105.70;47.42;;;;;;;;;;4999840;28;20050;-85
2021/12/06 09:58:01;;;;;;;105.18;48.90;;;;;;;;;;4998636;28;20026;-82
2021/12/06 10:00:32;;;;;;;104.07;50.90;;;;;;;;;;4983255;28;20260;-83
2021/12/06 10:03:01;;;;;;;116.78;53.00;;;;;;;;;;4998586;28;20057;-81
2021/12/06 10:05:30;;;;;;;112.70;54.00;;;;;;;;;;4999481;28;20077;-83
2021/12/06 10:08:00;;;;;;;123.82;59.88;;;;;;;;;;4999749;28;20090;-82
2021/12/06 10:10:29;;;;;;;120.22;56.67;;;;;;;;;;4983779;28;20026;-83
2021/12/06 10:12:56;;;;;;;110.23;52.83;;;;;;;;;;5000453;28;20392;-82
2021/12/06 10:15:26;;;;;;;128.38;57.15;;;;;;;;;;4988517;23;20034;-82
2021/12/06 10:17:54;;;;;;;140.65;58.97;;;;;;;;;;5001521;28;20336;-82
2021/12/06 10:20:20;;;;;;;141.48;60.90;;;;;;;;;;4999939;28;20022;-82
2021/12/06 10:22:46;;;;;;;110.78;54.70;;;;;;;;;;4984143;28;20359;-82
2021/12/06 10:25:12;;;;;;;135.70;57.10;;;;;;;;;;5000507;28;20023;-82
2021/12/06 10:27:49;;;;;;;112.70;51.83;;;;;;;;;;5001965;28;20058;-84
2021/12/06 10:30:22;;;;;;;131.48;55.40;;;;;;;;;;5062793;23;20061;-82
2021/12/06 10:33:15;;;;;;;117.45;58.00;;;;;;;;;;4904998;29;20047;-80
2021/12/06 10:35:59;;;;;;;138.38;60.95;;;;;;;;;;5035743;23;20495;-82
2021/12/06 10:38:53;;;;;;;128.55;52.92;;;;;;;;;;5030687;23;20303;-82
2021/12/06 10:41:29;;;;;;;136.07;58.67;;;;;;;;;;5081633;23;20986;-83
2021/12/06 10:44:00;;;;;;;112.23;56.97;;;;;;;;;;5000978;28;20022;-82
2021/12/06 10:46:26;;;;;;;;;;;;;;;;;;4999177;28;20029;-82
2021/12/06 10:48:57;;;;;;;128.35;63.67;;;;;;;;;;5000243;28;19905;-82
2021/12/06 10:51:24;;;;;;;123.22;61.90;;;;;;;;;;5001824;28;20041;-83
2021/12/06 10:53:59;;;;;;;117.43;60.92;;;;;;;;;;4998315;28;20021;-82
2021/12/06 10:56:36;;;;;;;142.35;65.15;;;;;;;;;;4998358;28;20022;-84
2021/12/06 10:59:03;;;;;;;127.28;59.10;;;;;;;;;;4997745;28;20018;-83
2021/12/06 11:01:33;;;;;;;132.35;62.08;;;;;;;;;;4997325;28;20317;-82
2021/12/06 11:04:00;;;;;;;123.70;58.93;;;;;;;;;;4981200;28;20057;-82
2021/12/06 11:06:30;;;;;;;137.50;61.15;;;;;;;;;;4998082;28;20298;-83
2021/12/06 11:08:58;;;;;;;153.00;61.17;;;;;;;;;;4998908;28;20022;-82
2021/12/06 11:11:27;;;;;;;140.07;62.22;;;;;;;;;;5001120;28;20030;-82
2021/12/06 11:13:55;;;;;;;126.82;57.85;;;;;;;;;;5000836;28;20444;-82
2021/12/06 11:16:41;;;;;;;112.93;50.90;;;;;;;;;;4999972;28;20022;-83
2021/12/06 11:19:11;;;;;;;119.70;51.50;;;;;;;;;;5001002;28;20043;-82
2021/12/06 11:21:42;;;;;;;108.20;52.33;;;;;;;;;;4999570;28;20452;-83
2021/12/06 11:24:13;;;;;;;124.53;54.53;;;;;;;;;;4998716;28;20034;-82
2021/12/06 11:27:02;;;;;;;107.68;52.58;;;;;;;;;;5000002;28;20085;-82
2021/12/06 11:29:31;;;;;;;114.57;53.53;;;;;;;;;;4986550;28;20063;-82
2021/12/06 11:32:07;;;;;;;97.05;47.08;;;;;;;;;;4999685;28;20029;-82
2021/12/06 11:34:37;;;;;;;133.00;55.92;;;;;;;;;;4999699;28;20456;-82
2021/12/06 11:37:10;;;;;;;108.82;47.42;;;;;;;;;;4982295;28;20030;-82
2021/12/06 11:39:36;;;;;;;118.15;52.58;;;;;;;;;;4998671;28;20029;-82
2021/12/06 11:42:02;;;;;;;121.72;49.35;;;;;;;;;;4999013;28;20046;-82
2021/12/06 11:44:31;;;;;;;105.15;47.60;;;;;;;;;;4998967;28;20026;-82
2021/12/06 11:47:01;;;;;;;114.13;50.00;;;;;;;;;;4998602;28;20109;-82
2021/12/06 11:49:29;;;;;;;110.40;52.28;;;;;;;;;;4999738;28;20030;-82
2021/12/06 11:51:55;;;;;;;108.32;50.78;;;;;;;;;;4999200;28;20429;-82
2021/12/06 11:54:22;;;;;;;115.47;50.97;;;;;;;;;;4999431;28;20026;-82
2021/12/06 11:56:49;;;;;;;104.90;50.10;;;;;;;;;;4999269;28;20034;-82
2021/12/06 11:59:17;;;;;;;118.97;52.55;;;;;;;;;;4998254;28;20019;-82
2021/12/06 12:01:53;;;;;;;113.63;48.25;;;;;;;;;;4997554;28;20380;-82
2021/12/06 12:04:24;;;;;;;111.15;51.00;;;;;;;;;;4997762;28;20083;-82
2021/12/06 12:06:56;;;;;;;128.77;54.33;;;;;;;;;;4999374;28;20403;-82
2021/12/06 12:09:30;;;;;;;128.68;60.40;;;;;;;;;;4982104;28;20329;-83
2021/12/06 12:12:05;;;;;;;111.43;56.40;;;;;;;;;;4998266;28;20018;-83
2021/12/06 12:14:31;;;;;;;124.03;54.38;;;;;;;;;;4999604;28;20114;-82
2021/12/06 12:16:59;;;;;;;113.88;53.95;;;;;;;;;;4999190;28;20400;-82
2021/12/06 12:19:25;;;;;;;118.82;50.78;;;;;;;;;;4999714;28;20046;-82
2021/12/06 12:21:51;;;;;;;116.80;51.45;;;;;;;;;;4998185;28;20045;-82
2021/12/06 12:24:17;;;;;;;120.55;52.67;;;;;;;;;;4997904;28;20029;-81
2021/12/06 12:26:55;;;;;;;104.95;49.47;;;;;;;;;;4999342;28;20078;-81
2021/12/06 12:29:26;;;;;;;128.82;50.58;;;;;;;;;;4997476;28;20077;-81
2021/12/06 12:31:55;;;;;;;131.05;52.22;;;;;;;;;;4999027;28;20117;-81
2021/12/06 12:34:23;;;;;;;156.82;61.35;;;;;;;;;;4997781;28;20141;-81
2021/12/06 12:36:49;;;;;;;137.30;56.08;;;;;;;;;;4998522;28;20340;-82
2021/12/06 12:39:19;;;;;;;123.32;53.10;;;;;;;;;;4997504;28;20018;-80
2021/12/06 12:41:50;;;;;;;119.00;51.30;;;;;;;;;;4981421;28;20049;-81
2021/12/06 12:44:16;;;;;;;138.40;50.10;;;;;;;;;;4999050;28;20108;-81
2021/12/06 12:46:45;;;;;;;122.15;49.40;;;;;;;;;;4997676;28;20030;-81
2021/12/06 12:49:13;;;;;;;114.50;51.03;;;;;;;;;;4999079;28;20046;-81
2021/12/06 12:51:44;;;;;;;114.45;48.13;;;;;;;;;;4980927;28;20030;-81
2021/12/06 12:54:11;;;;;;;103.25;48.22;;;;;;;;;;5032938;23;20042;-81
2021/12/06 12:56:37;;;;;;;99.97;48.17;;;;;;;;;;5043219;23;20484;-81
2021/12/06 12:59:18;;;;;;;110.60;45.05;;;;;;;;;;4998107;28;20022;-80
2021/12/06 13:01:46;;;;;;;112.63;48.65;;;;;;;;;;4998592;28;20093;-81
2021/12/06 13:04:12;;;;;;;129.55;52.80;;;;;;;;;;4997443;28;20053;-81
2021/12/06 13:06:39;;;;;;;111.00;47.33;;;;;;;;;;4998313;28;20022;-81
2021/12/06 13:09:06;;;;;;;115.75;45.60;;;;;;;;;;4997282;28;20041;-81
2021/12/06 13:11:49;;;;;;;103.78;43.60;;;;;;;;;;4998871;28;20477;-80
2021/12/06 13:14:35;;;;;;;127.70;58.72;;;;;;;;;;4980537;28;20026;-80
2021/12/06 13:17:04;;;;;;;134.23;61.08;;;;;;;;;;4997317;28;20038;-81
2021/12/06 13:19:55;;;;;;;137.13;59.58;;;;;;;;;;4997038;28;20018;-81
2021/12/06 13:22:30;;;;;;;130.32;60.72;;;;;;;;;;4996549;28;20034;-81
2021/12/06 13:24:56;;;;;;;152.82;65.80;;;;;;;;;;4997435;28;20030;-81
2021/12/06 13:27:32;;;;;;;169.82;85.50;;;;;;;;;;4998424;28;20026;-81
2021/12/06 13:30:00;;;;;;;175.18;87.55;;;;;;;;;;4998190;28;20041;-81
2021/12/06 13:32:28;;;;;;;165.93;84.15;;;;;;;;;;4998264;28;20026;-81
2021/12/06 13:34:54;;;;;;;149.68;74.30;;;;;;;;;;4998509;28;20025;-80
2021/12/06 13:37:24;;;;;;;152.80;75.53;;;;;;;;;;4996954;28;20057;-82
2021/12/06 13:39:50;;;;;;;140.52;75.13;;;;;;;;;;4999113;28;20026;-81
2021/12/06 13:42:36;;;;;;;157.20;78.28;;;;;;;;;;5000957;28;20161;-81
2021/12/06 13:45:04;;;;;;;178.68;84.22;;;;;;;;;;5000167;28;20026;-80
2021/12/06 13:47:30;;;;;;;160.35;79.20;;;;;;;;;;5000129;28;20340;-80
2021/12/06 13:50:06;;;;;;;167.57;77.93;;;;;;;;;;5001299;28;20413;-81
2021/12/06 13:52:46;;;;;;;175.60;82.90;;;;;;;;;;5003123;28;20097;-81
2021/12/06 13:55:18;;;;;;;157.87;77.17;;;;;;;;;;5002262;28;20018;-81
2021/12/06 13:57:46;;;;;;;166.25;80.85;;;;;;;;;;5000343;28;20030;-82
2021/12/06 14:00:13;;;;;;;150.55;74.30;;;;;;;;;;5001193;28;20022;-81
2021/12/06 14:02:41;;;;;;;153.60;71.88;;;;;;;;;;5000220;28;20161;-81
2021/12/06 14:05:07;;;;;;;144.55;69.82;;;;;;;;;;5001283;28;20022;-81
2021/12/06 14:07:34;;;;;;;146.80;69.95;;;;;;;;;;5001377;28;20114;-81
2021/12/06 14:10:00;;;;;;;150.90;67.28;;;;;;;;;;4999493;28;20398;-81
2021/12/06 14:12:27;;;;;;;132.50;65.30;;;;;;;;;;5000790;28;20491;-81
2021/12/06 14:14:55;;;;;;;129.77;66.43;;;;;;;;;;5000460;28;20410;-81
2021/12/06 14:17:22;;;;;;;144.15;70.35;;;;;;;;;;5001036;28;20097;-81
2021/12/06 14:19:49;;;;;;;136.93;66.03;;;;;;;;;;4999807;28;20369;-81
2021/12/06 14:22:17;;;;;;;142.88;71.82;;;;;;;;;;4983107;28;20042;-79
2021/12/06 14:24:44;;;;;;;162.85;75.30;;;;;;;;;;5000859;28;20359;-81
2021/12/06 14:27:10;;;;;;;156.63;75.60;;;;;;;;;;4999918;28;20057;-80
2021/12/06 14:29:37;;;;;;;156.55;76.35;;;;;;;;;;5000645;28;20022;-81
2021/12/06 14:32:05;;;;;;;177.55;89.47;;;;;;;;;;5000191;28;20329;-80
2021/12/06 14:34:34;;;;;;;167.23;83.65;;;;;;;;;;5001072;28;20109;-81
2021/12/06 14:37:04;;;;;;;174.02;82.47;;;;;;;;;;5001019;28;20336;-81
2021/12/06 14:39:30;;;;;;;188.30;81.87;;;;;;;;;;5000354;28;20429;-81
2021/12/06 14:42:00;;;;;;;165.95;81.07;;;;;;;;;;5000631;28;20447;-81
2021/12/06 14:44:32;;;;;;;157.32;78.43;;;;;;;;;;5000418;28;20360;-81
2021/12/06 14:46:59;;;;;;;155.32;80.78;;;;;;;;;;5000107;28;20018;-81
2021/12/06 14:49:25;;;;;;;165.25;86.80;;;;;;;;;;4998491;28;20121;-81
2021/12/06 14:51:51;;;;;;;158.23;70.28;;;;;;;;;;4997833;28;20028;-81
2021/12/06 14:54:23;;;;;;;152.02;71.00;;;;;;;;;;5000355;28;20019;-81
2021/12/06 14:56:56;;;;;;;115.32;55.65;;;;;;;;;;4999564;28;20081;-81
2021/12/06 14:59:27;;;;;;;124.40;57.97;;;;;;;;;;5000860;28;20049;-81
2021/12/06 15:01:54;;;;;;;120.72;57.78;;;;;;;;;;4999114;28;20045;-82
2021/12/06 15:04:39;;;;;;;113.72;54.63;;;;;;;;;;5001369;28;20089;-81
2021/12/06 15:07:07;;;;;;;138.88;68.93;;;;;;;;;;4999331;28;20411;-81
2021/12/06 15:09:34;;;;;;;133.52;62.28;;;;;;;;;;5000288;28;20026;-80
2021/12/06 15:12:01;;;;;;;140.20;69.43;;;;;;;;;;4999992;28;20049;-81
2021/12/06 15:14:28;;;;;;;119.97;63.00;;;;;;;;;;4998848;28;20431;-81
2021/12/06 15:16:54;;;;;;;153.98;68.40;;;;;;;;;;5031393;23;20425;-81
2021/12/06 15:19:21;;;;;;;140.95;68.60;;;;;;;;;;5021951;23;20054;-81
2021/12/06 15:21:50;;;;;;;134.02;67.63;;;;;;;;;;4999787;28;20030;-80
2021/12/06 15:24:17;;;;;;;125.60;61.72;;;;;;;;;;4999156;28;20412;-81
2021/12/06 15:26:50;;;;;;;117.90;59.05;;;;;;;;;;5003775;23;20332;-81
2021/12/06 15:29:21;;;;;;;113.70;56.10;;;;;;;;;;4998914;28;20431;-82
2021/12/06 15:31:49;;;;;;;144.95;65.80;;;;;;;;;;4999340;28;20022;-81
2021/12/06 15:34:21;;;;;;;123.32;59.60;;;;;;;;;;4999248;28;20018;-81
2021/12/06 15:36:48;;;;;;;131.63;59.00;;;;;;;;;;4999307;28;20026;-81
2021/12/06 15:39:14;;;;;;;142.75;63.33;;;;;;;;;;4999481;28;20054;-81
2021/12/06 15:41:48;;;;;;;123.50;55.00;;;;;;;;;;4999630;28;20034;-81
2021/12/06 15:44:14;;;;;;;122.60;56.22;;;;;;;;;;4998302;28;20029;-81